• Join FlightAware (Why Join?)
  • Login
  • US Flag 
10:33AM EDT


 

Airport Tracker/Info


-or-


 

Live Flight TrackerFlight Track Log ✈ FLG4222 ✈ 06-Oct-2013 ✈ KBGM - KDTW

Flight Track Log - Related Links

Times and Time Zones

All times are in EDT time to prevent confusion due to time zone crossing. See the FLG4222 flight status page for this flight to view local times or setup timezone preferences in your user account.

Time Position Orientation Groundspeed Altitude Reporting Facility
EDT Latitude Longitude Course Direction KTS MPH feet Rate Location/Type
12:03PM 42.1522 -76.0353 289° West 204 235 5,800  Level New York Center
12:04PM 42.1794 -76.1269 292° West 224 258 8,200 1,980 Climbing New York Center
12:05PM 42.2086 -76.2189 293° West 247 284 9,800 1,560 Climbing New York Center
12:06PM 42.2394 -76.3167 293° West 272 313 11,400 1,020 Climbing New York Center
12:07PM 42.2756 -76.4344 293° West 307 353 11,900 240 Climbing New York Center
12:08PM 42.2299 -76.7097 289° West  Level Estimated
12:08PM 42.3172 -76.5644 293° West 348 400 11,900  Level New York Center
12:09PM 42.3592 -76.7006 293° West 387 445 11,900 1,140 Level Cleveland Center
12:10PM 42.3975 -76.8281 292° West 375 432 14,300 2,040 Climbing Cleveland Center
12:11PM 42.4344 -76.9492 292° West 354 407 16,200 1,380 Climbing Cleveland Center
12:12PM 42.4714 -77.0736 292° West 355 409 17,200 960 Climbing Cleveland Center
12:14PM 42.5106 -77.2033 292° West 367 422 18,200 1,020 Climbing Cleveland Center
12:15PM 42.5583 -77.3664 292° West 385 443 19,400 960 Climbing Cleveland Center
12:16PM 42.5975 -77.4972 292° West 382 440 20,300 900 Climbing Cleveland Center
12:17PM 42.6364 -77.6314 292° West 381 438 21,300 960 Climbing Cleveland Center
12:18PM 42.6606 -77.7692 283° West 384 442 22,300 960 Climbing Cleveland Center
12:19PM 42.6661 -77.9211 273° West 366 421 23,300 720 Climbing Cleveland Center
12:20PM 42.6689 -78.0614 272° West 371 427 23,800 480 Climbing Cleveland Center
12:21PM 42.6725 -78.2042 272° West 377 434 24,300 480 Climbing Cleveland Center
12:22PM 42.6761 -78.3494 272° West 385 443 24,800 480 Climbing Cleveland Center
12:23PM 42.6803 -78.4969 272° West 391 450 25,300 480 Climbing Cleveland Center
12:24PM 42.6850 -78.6769 272° West 396 456 25,900 480 Climbing Cleveland Center
12:25PM 42.6878 -78.8253 272° West 392 451 26,400 480 Climbing Cleveland Center
12:26PM 42.6911 -78.9728 272° West 390 449 26,900 480 Climbing Cleveland Center
12:27PM 42.6939 -79.1197 272° West 390 449 27,400 480 Climbing Cleveland Center
12:28PM 42.6947 -79.2650 270° West 387 445 27,900 240 Climbing Cleveland Center
12:29PM 42.6969 -79.4111 271° West 388 447 28,000 -540 Climbing Cleveland Center
12:30PM 42.6994 -79.5936 271° West 403 464 26,800 -960 Descending Cleveland Center
12:31PM 42.6994 -79.7572 270° West 432 497 26,000 -420 Descending Cleveland Center
12:32PM 42.6903 -79.9164 266° West 425 489 26,000 -960 Level Cleveland Center
12:33PM 42.6781 -80.0786 264° West 421 484 24,100 -1,020 Descending Cleveland Center
12:34PM 42.6683 -80.2417 265° West 428 493 24,000 -60 Descending Cleveland Center
12:35PM 42.6600 -80.4017 266° West 423 487 24,000  Level Cleveland Center
12:36PM 42.6506 -80.5592 265° West 416 479 24,000  Level Cleveland Center
12:37PM 42.6397 -80.7431 265° West 415 478 24,000  Level Cleveland Center
12:38PM 42.6289 -80.8997 265° West 416 479 24,000  Level Cleveland Center
12:39PM 42.6183 -81.0525 265° West 408 470 24,000  Level Cleveland Center
12:40PM 42.6086 -81.2061 265° West 406 467 24,000  Level Cleveland Center
12:41PM 42.5972 -81.3592 264° West 405 466 24,000  Level Cleveland Center
12:42PM 42.5867 -81.5142 265° West 408 470 24,000  Level Cleveland Center
12:43PM 42.5747 -81.6683 264° West 409 471 24,000 -960 Level Cleveland Center
12:45PM 42.5636 -81.8222 264° West 412 474 22,100 -2,220 Descending Cleveland Center
12:46PM 42.5508 -82.0000 264° West 396 456 19,500 -2,460 Descending Cleveland Center
12:47PM 42.5386 -82.1492 264° West 398 458 17,100 -2,400 Descending Cleveland Center
12:47PM 42.5372 -82.1797 266° West 396 456 16,700 -2,160 Descending Cleveland Center
12:48PM 42.5275 -82.2922 263° West 389 448 14,900 -2,220 Descending Cleveland Center
12:48PM 42.5236 -82.3817 267° West 376 433 13,600 -2,160 Descending Cleveland Center
12:49PM 42.5167 -82.4333 260° West 381 438 12,700 -1,500 Descending Cleveland Center
12:49PM 42.5058 -82.5464 263° West 359 413 11,800 -1,200 Descending Cleveland Center
12:50PM 42.5008 -82.5664 251° West 366 421 11,500 -1,560 Descending Cleveland Center
12:50PM 42.4714 -82.6464 244° Southwest 299 344 10,400 -1,440 Descending Cleveland Center
12:51PM 42.4567 -82.6867 244° Southwest 306 352 10,000 -1,320 Descending Cleveland Center
12:51PM 42.4397 -82.7383 246° West 257 296 9,100 -1,020 Descending Cleveland Center
12:52PM 42.4256 -82.7756 243° Southwest 273 314 9,000 -1,020 Descending Cleveland Center
12:52PM 42.4250 -82.8242 269° West 266 306 8,200 -1,680 Descending Cleveland Center
12:53PM 42.4247 -82.8719 270° West 259 298 7,300 -1,200 Descending Cleveland Center
12:53PM 42.4328 -82.9186 283° West 257 296 7,000 -240 Descending Cleveland Center
12:54PM 42.4592 -82.9444 324° Northwest 257 296 7,100  Climbing Cleveland Center
12:54PM 42.4842 -82.9622 332° Northwest 227 261 7,000 -120 Descending Cleveland Center
12:55PM 42.5139 -82.9831 333° Northwest 229 264 7,000 60 Level Cleveland Center
12:55PM 42.5286 -83.0106 306° West 182 209 7,100  Climbing Cleveland Center
12:56PM 42.5408 -83.0447 296° West 207 238 7,000  Descending Cleveland Center
12:56PM 42.5444 -83.0781 278° West 165 190 7,100  Climbing Cleveland Center
12:57PM 42.5250 -83.1081 229° Southwest 164 189 7,000  Descending Cleveland Center
12:57PM 42.5144 -83.1164 210° Southwest 156 180 7,100 -300 Climbing Cleveland Center
12:58PM 42.4847 -83.1353 205° Southwest 160 184 6,700 -660 Descending Cleveland Center
12:58PM 42.4769 -83.1422 213° Southwest 160 184 6,500 -900 Descending Cleveland Center
12:59PM 42.4472 -83.1636 208° Southwest 158 182 5,800 -900 Descending Cleveland Center
12:59PM 42.4367 -83.1736 215° Southwest 148 170 5,500 -780 Descending Cleveland Center
01:00PM 42.4108 -83.1900 205° Southwest 151 174 5,000 -840 Descending Cleveland Center
01:00PM 42.3947 -83.2044 214° Southwest 156 180 4,600 -900 Descending Cleveland Center
01:01PM 42.3731 -83.2183 205° Southwest 153 176 4,100 -780 Descending Cleveland Center
01:01PM 42.3614 -83.2281 212° Southwest 151 174 3,900 -780 Descending Cleveland Center
01:02PM 42.3361 -83.2464 208° Southwest 152 175 3,300 -840 Descending Cleveland Center
01:02PM 42.3214 -83.2592 213° Southwest 150 173 3,000 -1,020 Descending Cleveland Center
01:03PM 42.2922 -83.2783 206° Southwest 150 173 2,300 -900 Descending Cleveland Center
01:03PM 42.2878 -83.2856 230° Southwest 143 165 2,200 -720 Descending Cleveland Center
01:04PM 42.2589 -83.3042 205° Southwest 142 163 1,600 -660 Descending Cleveland Center
01:04PM 42.2569 -83.3067 224° Southwest 138 159 1,600 -420 Level Cleveland Center
01:05PM 42.2292 -83.3253 206° Southwest 139 160 1,200 -420 Descending Cleveland Center